Latest Weather Observations for Bradshaw

IDD60801

Issued at 4:02 pm CST Wednesday 29 July 2015 (issued every 30 minutes, with the page automatically refreshed every 10 minutes)

About weather observations | Map of weather stations | Latest weather observations for NT | Other Formats
Station Details ID: 014954 Name: BRADSHAW Lat: -14.94 Lon: 130.81 Height: 75.0 m
Data from the previous 72 hours. | See also: Recent months at Bradshaw
Date/Time
CST
Temp
°C
App
Temp
°C
Dew
Point
Rel
Hum
%
Delta-T
°C
Wind Press
QNH
hPa
Press
MSL
hPa
Rain
since 9 am
mm
Dir
 
Spd
km/h
Gust
km/h
Spd
kts
Gust
kts
29/04:00pm 32.3 27.1 5.7 19 14.2 E 22 35 12 19 1015.9 - 0.0
29/03:30pm 32.3 27.4 5.0 18 14.4 E 20 35 11 19 1016.2 - 0.0
29/03:00pm 31.8 26.8 4.6 18 14.2 ESE 20 32 11 17 1016.6 1016.4 0.0
29/02:30pm 31.3 26.1 3.4 17 14.3 SSE 20 30 11 16 1017.1 - 0.0
29/02:00pm 31.2 26.1 3.3 17 14.2 E 19 32 10 17 1017.5 - 0.0
29/01:30pm 31.4 26.0 2.6 16 14.5 SE 20 32 11 17 1018.2 - 0.0
29/01:00pm 29.8 24.8 1.3 16 13.9 E 17 26 9 14 1018.9 - 0.0
29/12:30pm 29.2 23.9 1.7 17 13.5 ESE 19 28 10 15 1019.5 - 0.0
29/12:00pm 28.1 22.4 0.8 17 13.0 SE 20 30 11 16 1020.2 1020.0 0.0
29/11:30am 27.5 22.0 0.3 17 12.9 E 19 28 10 15 1020.8 - 0.0
29/11:00am 26.8 21.1 0.5 18 12.4 E 20 28 11 15 1021.3 - 0.0
29/10:30am 25.6 21.2 0.3 19 11.8 ESE 13 20 7 11 1021.8 - 0.0
29/10:00am 24.2 19.1 0.5 21 11.0 ESE 17 24 9 13 1022.0 - 0.0
29/09:30am 22.9 17.7 0.1 22 10.4 SE 17 24 9 13 1022.1 - 0.0
29/09:00am 21.7 18.7 0.8 25 9.5 SSE 6 11 3 6 1021.8 1021.5 0.0
29/08:30am 20.5 18.8 1.9 29 8.6 CALM 0 0 0 0 1021.5 - 0.0
29/08:00am 18.4 16.4 2.3 34 7.4 SSE 2 7 1 4 1021.2 - 0.0
29/07:30am 16.4 14.7 1.7 37 6.5 CALM 0 0 0 0 1020.7 - 0.0
29/07:00am 16.7 15.1 2.3 38 6.5 CALM 0 0 0 0 1020.1 - 0.0
29/06:30am 17.9 15.0 1.4 33 7.4 SSE 6 7 3 4 1019.8 - 0.0
29/06:00am 19.3 17.7 2.2 32 7.9 CALM 0 4 0 2 1019.7 1019.5 0.0
29/05:30am 18.5 16.5 2.4 34 7.4 S 2 7 1 4 1019.7 - 0.0
29/05:00am 17.9 15.3 3.0 37 6.9 SSW 6 7 3 4 1019.7 - 0.0
29/04:30am 17.7 15.0 3.6 39 6.6 SW 7 9 4 5 1019.7 - 0.0
29/04:00am 17.4 14.8 4.0 41 6.3 WSW 7 9 4 5 1019.7 - 0.0
29/03:30am 17.7 16.2 3.2 38 6.7 CALM 0 4 0 2 1019.7 - 0.0
29/03:00am 17.5 16.0 3.0 38 6.7 CALM 0 0 0 0 1019.8 1019.6 0.0
29/02:30am 19.1 17.3 3.7 36 7.3 WSW 2 6 1 3 1019.9 - 0.0
29/02:00am 18.1 16.3 3.2 37 6.9 W 2 7 1 4 1020.0 - 0.0
29/01:30am 19.8 18.5 4.3 36 7.5 CALM 0 0 0 0 1020.0 - 0.0
29/01:00am 19.7 17.4 4.6 37 7.3 S 6 7 3 4 1020.0 - 0.0
29/12:30am 19.8 18.5 3.9 35 7.6 CALM 0 7 0 4 1020.0 - 0.0
29/12:00am 21.1 18.5 4.2 33 8.2 SE 7 9 4 5 1019.9 1019.7 0.0
 
Date/Time
CST
Temp
°C
App
Temp
°C
Dew
Point
Rel
Hum
%
Delta-T
°C
Wind Press
QNH
hPa
Press
MSL
hPa
Rain
since 9 am
mm
Dir
 
Spd
km/h
Gust
km/h
Spd
kts
Gust
kts
28/11:30pm 21.8 19.4 4.4 32 8.5 ESE 6 9 3 5 1020.0 - 0.0
28/11:00pm 24.3 21.0 4.6 28 9.9 ESE 11 13 6 7 1020.1 - 0.0
28/10:30pm 24.7 21.4 4.5 27 10.1 ESE 11 17 6 9 1020.2 - 0.0
28/10:00pm 25.0 21.8 5.2 28 10.1 ESE 11 13 6 7 1020.1 - 0.0
28/09:30pm 24.7 22.0 5.5 29 9.8 ESE 9 13 5 7 1020.0 - 0.0
28/09:00pm 25.0 22.2 5.2 28 10.0 SE 9 11 5 6 1019.8 1019.6 0.0
28/08:30pm 25.8 22.7 5.4 27 10.5 ESE 11 13 6 7 1019.5 - 0.0
28/08:00pm 26.1 22.9 5.1 26 10.7 SE 11 13 6 7 1019.0 - 0.0
28/07:30pm 27.1 24.0 5.4 25 11.2 SE 11 13 6 7 1018.5 - 0.0
28/07:00pm 28.1 24.1 5.0 23 11.9 SE 15 19 8 10 1018.0 - 0.0
28/06:30pm 29.2 24.9 5.3 22 12.5 SSE 17 24 9 13 1017.7 - 0.0
28/06:00pm 30.2 25.6 5.5 21 13.0 SSE 19 28 10 15 1017.3 1017.1 0.0
28/05:30pm 30.8 25.9 5.3 20 13.4 SE 20 32 11 17 1017.0 - 0.0
28/05:00pm 31.4 26.8 5.8 20 13.6 ESE 19 35 10 19 1016.8 - 0.0
28/04:30pm 31.9 26.5 6.2 20 13.8 SSE 24 33 13 18 1016.7 - 0.0
28/04:00pm 31.5 27.3 5.8 20 13.7 ESE 17 24 9 13 1016.7 - 0.0
28/03:30pm 31.6 26.9 5.9 20 13.7 E 20 35 11 19 1016.8 - 0.0
28/03:00pm 31.3 26.5 4.9 19 13.8 SE 19 30 10 16 1017.2 1017.0 0.0
28/02:30pm 30.4 25.9 4.2 19 13.5 SE 17 28 9 15 1017.8 - 0.0
28/02:00pm 30.1 25.2 4.0 19 13.4 S 19 28 10 15 1018.3 - 0.0
28/01:30pm 29.5 25.2 3.5 19 13.2 ESE 15 33 8 18 1019.0 - 0.0
28/01:00pm 28.8 23.5 2.9 19 12.9 ESE 20 28 11 15 1019.8 - 0.0
28/12:30pm 28.1 23.4 3.0 20 12.5 SE 17 33 9 18 1020.4 - 0.0
28/12:00pm 27.4 22.6 2.5 20 12.2 ESE 17 24 9 13 1021.1 1020.8 0.0
28/11:30am 27.2 21.6 3.7 22 11.8 ESE 22 30 12 16 1021.5 - 0.0
28/11:00am 26.0 20.6 2.7 22 11.4 SE 20 33 11 18 1022.0 - 0.0
28/10:30am 25.3 19.9 2.7 23 11.0 SE 20 30 11 16 1022.5 - 0.0
28/10:00am 24.3 19.0 3.0 25 10.3 E 20 30 11 16 1022.6 - 0.0
28/09:30am 23.4 17.7 2.8 26 9.9 SE 22 32 12 17 1022.5 - 0.0
28/09:00am 22.6 16.9 2.7 27 9.5 SE 22 32 12 17 1022.3 1022.0 0.0
28/08:30am 21.7 16.3 2.4 28 9.1 ESE 20 30 11 16 1021.9 - 0.0
28/08:00am 21.1 17.1 2.9 30 8.6 SE 13 19 7 10 1021.9 - 0.0
28/07:30am 19.6 16.4 3.3 34 7.7 SSE 9 15 5 8 1021.8 - 0.0
28/07:00am 19.5 16.4 3.6 35 7.5 SE 9 17 5 9 1021.2 - 0.0
28/06:30am 19.3 16.7 3.1 34 7.6 SSE 6 7 3 4 1020.7 - 0.0
28/06:00am 20.8 17.3 3.5 32 8.2 SE 11 15 6 8 1020.4 1020.2 0.0
28/05:30am 20.9 17.4 3.6 32 8.3 SE 11 15 6 8 1020.5 - 0.0
28/05:00am 21.3 17.9 4.0 32 8.4 SE 11 15 6 8 1020.2 - 0.0
28/04:30am 21.9 18.5 4.0 31 8.7 SE 11 15 6 8 1019.9 - 0.0
28/04:00am 22.5 18.4 4.1 30 9.0 ESE 15 22 8 12 1020.1 - 0.0
28/03:30am 23.0 18.6 4.5 30 9.2 ESE 17 24 9 13 1020.0 - 0.0
28/03:00am 23.2 19.9 4.7 30 9.2 ESE 11 17 6 9 1019.9 1019.7 0.0
28/02:30am 23.9 20.6 4.8 29 9.6 ESE 11 22 6 12 1019.8 - 0.0
28/02:00am 24.2 21.0 5.1 29 9.6 SE 11 17 6 9 1019.8 - 0.0
28/01:30am 24.8 20.2 5.6 29 9.8 SE 19 30 10 16 1019.8 - 0.0
28/01:00am 25.5 21.8 6.2 29 10.0 SE 15 30 8 16 1019.8 - 0.0
28/12:30am 25.8 21.6 5.9 28 10.3 SE 17 22 9 12 1019.7 - 0.0
28/12:00am 26.4 22.2 5.9 27 10.6 SE 17 24 9 13 1019.5 1019.3 0.0
 
Date/Time
CST
Temp
°C
App
Temp
°C
Dew
Point
Rel
Hum
%
Delta-T
°C
Wind Press
QNH
hPa
Press
MSL
hPa
Rain
since 9 am
mm
Dir
 
Spd
km/h
Gust
km/h
Spd
kts
Gust
kts
27/11:30pm 27.2 22.1 6.0 26 11.1 SE 22 33 12 18 1019.5 - 0.0
27/11:00pm 27.6 23.1 6.9 27 11.0 ESE 20 35 11 19 1019.4 - 0.0
27/10:30pm 27.2 23.7 7.1 28 10.7 SE 15 19 8 10 1019.1 - 0.0
27/10:00pm 28.2 25.0 6.9 26 11.4 ESE 13 19 7 10 1018.9 - 0.0
27/09:30pm 29.0 25.5 7.0 25 11.8 ESE 15 26 8 14 1018.6 - 0.0
27/09:00pm 29.4 25.5 7.3 25 11.9 ESE 17 24 9 13 1018.4 1018.2 0.0
27/08:30pm 29.6 26.2 7.5 25 12.0 ESE 15 22 8 12 1018.1 - 0.0
27/08:00pm 29.9 26.8 7.2 24 12.3 E 13 19 7 10 1017.8 - 0.0
27/07:30pm 30.9 26.5 7.4 23 12.8 E 20 28 11 15 1017.4 - 0.0
27/07:00pm 31.5 26.8 7.9 23 13.0 E 22 30 12 16 1017.0 - 0.0
27/06:30pm 32.1 27.8 7.7 22 13.5 E 20 30 11 16 1016.6 - 0.0
27/06:00pm 33.0 27.6 7.8 21 14.0 E 26 37 14 20 1016.2 1016.0 0.0
27/05:30pm 33.6 28.1 7.5 20 14.5 ESE 26 37 14 20 1015.9 - 0.0
27/05:00pm 33.9 28.3 7.0 19 14.8 E 26 37 14 20 1015.7 - 0.0
27/04:30pm 34.7 29.4 6.9 18 15.3 ESE 24 39 13 21 1015.6 - 0.0
27/04:00pm 34.4 28.3 6.7 18 15.2 SE 28 41 15 22 1015.5 - 0.0
27/03:30pm 34.5 29.0 7.5 19 15.0 E 26 35 14 19 1015.7 - 0.0
27/03:10pm 34.2 28.3 7.3 19 14.9 E 28 46 15 25 1015.7 - 0.0
27/03:00pm 35.3 29.9 8.2 19 15.3 E 26 41 14 22 1015.9 1015.7 0.0
27/02:30pm 35.2 30.2 8.1 19 15.3 E 24 35 13 19 1016.3 - 0.0
27/02:11pm 34.9 29.3 8.6 20 14.9 E 28 56 15 30 1016.4 - 0.0
27/02:00pm 34.8 29.5 8.5 20 14.9 ESE 26 37 14 20 1016.6 - 0.0
27/01:30pm 33.7 28.5 9.0 22 14.0 E 26 35 14 19 1017.3 - 0.0
27/01:00pm 34.4 30.5 9.6 22 14.3 E 20 30 11 16 1017.7 - 0.0
27/12:30pm 32.5 28.0 8.7 23 13.4 ESE 22 33 12 18 1018.5 - 0.0
27/12:00pm 32.5 28.4 8.7 23 13.3 ESE 20 32 11 17 1019.0 1018.8 0.0
27/11:30am 32.1 28.1 8.4 23 13.2 E 19 28 10 15 1019.5 - 0.0
27/11:00am 31.4 28.0 9.0 25 12.6 E 17 22 9 12 1019.9 - 0.0
27/10:30am 29.4 25.7 7.9 26 11.7 E 17 28 9 15 1020.3 - 0.0
27/10:00am 28.8 25.0 7.4 26 11.6 E 17 24 9 13 1020.4 - 0.0
27/09:30am 29.0 24.4 8.1 27 11.4 E 22 32 12 17 1020.1 - 0.0
27/09:00am 28.1 24.7 11.2 35 9.7 E 20 32 11 17 1019.8 1019.6 0.0
27/08:30am 27.8 24.3 12.2 38 9.1 E 22 32 12 17 1019.6 - 0.0
27/08:00am 27.6 25.5 12.4 39 8.9 E 15 20 8 11 1019.4 - 0.0
27/07:30am 27.0 26.4 12.3 40 8.5 E 7 11 4 6 1019.1 - 0.0
27/07:00am 26.9 25.5 12.2 40 8.5 E 11 15 6 8 1018.7 - 0.0
27/06:30am 26.4 25.9 12.5 42 8.1 E 7 11 4 6 1018.4 - 0.0
27/06:00am 26.3 25.2 12.0 41 8.2 NE 9 15 5 8 1018.0 1017.8 0.0
27/05:30am 25.7 24.9 11.8 42 8.0 N 7 9 4 5 1017.7 - 0.0
27/05:00am 26.5 25.7 11.8 40 8.4 NNE 7 9 4 5 1017.4 - 0.0
27/04:30am 26.0 25.3 11.4 40 8.3 NNE 6 9 3 5 1017.4 - 0.0
27/04:00am 26.8 25.5 11.3 38 8.8 E 9 13 5 7 1017.2 - 0.0
27/03:30am 27.1 25.5 11.6 38 8.9 ENE 11 15 6 8 1017.2 - 0.0
27/03:00am 26.9 25.9 12.2 40 8.5 NW 9 11 5 6 1017.4 1017.2 0.0
27/02:30am 27.1 27.0 12.0 39 8.7 WNW 4 9 2 5 1017.6 - 0.0
27/02:00am 28.0 27.3 11.5 35 9.5 WSW 6 9 3 5 1017.8 - 0.0
27/01:30am 27.7 26.1 11.7 37 9.2 NNE 11 17 6 9 1017.8 - 0.0
27/01:00am 26.3 26.8 11.6 40 8.4 CALM 0 0 0 0 1017.6 - 0.0
27/12:30am 28.1 27.3 11.2 35 9.7 N 6 7 3 4 1017.5 - 0.0
27/12:00am 28.4 27.7 11.5 35 9.7 N 6 9 3 5 1017.7 1017.5 0.0
 
Date/Time
CST
Temp
°C
App
Temp
°C
Dew
Point
Rel
Hum
%
Delta-T
°C
Wind Press
QNH
hPa
Press
MSL
hPa
Rain
since 9 am
mm
Dir
 
Spd
km/h
Gust
km/h
Spd
kts
Gust
kts
26/11:30pm 28.3 27.7 12.2 37 9.4 N 7 9 4 5 1017.7 - 0.0
26/11:00pm 27.6 28.1 11.6 37 9.2 CALM 0 0 0 0 1017.7 - 0.0
26/10:30pm 27.8 27.6 11.8 37 9.2 E 4 7 2 4 1017.8 - 0.0
26/10:00pm 28.6 28.2 11.2 34 10.0 NE 4 6 2 3 1017.7 - 0.0
26/09:30pm 30.4 29.7 11.9 32 10.8 ENE 7 11 4 6 1017.6 - 0.0
26/09:00pm 30.6 29.5 10.5 29 11.5 ENE 7 9 4 5 1017.4 1017.2 0.0
26/08:30pm 32.0 30.7 11.2 28 12.1 ESE 9 15 5 8 1017.0 - 0.0
26/08:00pm 32.3 31.3 10.9 27 12.4 SE 7 11 4 6 1016.6 - 0.0
26/07:30pm 32.7 30.9 10.7 26 12.8 ESE 11 13 6 7 1016.2 - 0.0
26/07:00pm 33.2 31.3 10.5 25 13.2 SE 11 13 6 7 1015.7 - 0.0
26/06:30pm 34.3 31.3 10.8 24 13.8 SE 17 26 9 14 1015.3 - 0.0
26/06:00pm 34.9 32.3 10.7 23 14.2 E 15 19 8 10 1014.8 1014.6 0.0
26/05:30pm 35.4 33.1 10.4 22 14.6 E 13 19 7 10 1014.6 - 0.0
26/05:00pm 35.1 33.5 10.2 22 14.5 E 9 15 5 8 1014.5 - 0.0
26/04:30pm 35.0 31.8 10.1 22 14.5 E 17 26 9 14 1014.3 - 0.0

Other Formats:

Comma delimited format used in spreadsheet applications
http://www.bom.gov.au/fwo/IDD60801/IDD60801.94130.axf

JavaScript Object Notation format (JSON) in row-major order
http://www.bom.gov.au/fwo/IDD60801/IDD60801.94130.json